Time;durP1;ratioP1;P1;durP2;ratioP2;P2;SDS_P1;SDS_P2;PMS_P1;PMS_P2;Temp;Humidity;BMP_temperature;BMP_pressure;BME280_temperature;BME280_humidity;BME280_pressure;Samples;Min_cycle;Max_cycle;Signal;HPM_P1;HPM_P2
2021/07/09 00:01:59;;;;;;;;;8.00;6.50;;;;;;;;5035147;28;45401;-85
2021/07/09 00:04:26;;;;;;;;;6.00;6.00;;;;;;;;5021189;28;45655;-85
2021/07/09 00:06:52;;;;;;;;;7.00;4.25;;;;;;;;5014351;28;47209;-84
2021/07/09 00:09:18;;;;;;;;;5.00;5.00;;;;;;;;5031160;28;45661;-85
2021/07/09 00:11:47;;;;;;;;;7.25;5.25;;;;;;;;5035086;28;45497;-85
2021/07/09 00:14:14;;;;;;;;;5.75;5.00;;;;;;;;5036970;28;45537;-85
2021/07/09 00:16:41;;;;;;;;;4.25;4.25;;;;;;;;5030523;28;46903;-85
2021/07/09 00:19:06;;;;;;;;;7.00;5.00;;;;;;;;5034963;28;45630;-85
2021/07/09 00:21:32;;;;;;;;;4.50;4.50;;;;;;;;5034332;28;45612;-85
2021/07/09 00:23:59;;;;;;;;;4.25;4.00;;;;;;;;5034148;28;45621;-85
2021/07/09 00:26:24;;;;;;;;;3.25;3.00;;;;;;;;5019813;28;46453;-85
2021/07/09 00:28:50;;;;;;;;;4.50;4.50;;;;;;;;5037586;28;45519;-85
2021/07/09 00:31:15;;;;;;;;;4.25;4.00;;;;;;;;5033551;28;46359;-84
2021/07/09 00:33:40;;;;;;;;;5.00;4.25;;;;;;;;5036971;28;45287;-85
2021/07/09 00:36:06;;;;;;;;;4.00;4.00;;;;;;;;5034555;28;45969;-85
2021/07/09 00:38:31;;;;;;;;;4.75;4.75;;;;;;;;5028853;28;45477;-85
2021/07/09 00:40:57;;;;;;;;;5.00;3.00;;;;;;;;5021255;28;51469;-85
2021/07/09 00:43:22;;;;;;;;;4.75;4.00;;;;;;;;5036538;28;45707;-85
2021/07/09 00:45:47;;;;;;;;;4.25;4.25;;;;;;;;5043512;28;46538;-85
2021/07/09 00:48:13;;;;;;;;;5.00;4.75;;;;;;;;5037909;28;45047;-85
2021/07/09 00:50:38;;;;;;;;;5.00;3.67;;;;;;;;5031232;28;45533;-85
2021/07/09 00:53:03;;;;;;;;;4.75;4.50;;;;;;;;5027155;28;46150;-85
2021/07/09 00:55:29;;;;;;;;;5.00;4.00;;;;;;;;5023731;28;48053;-84
2021/07/09 00:57:54;;;;;;;;;6.50;3.75;;;;;;;;5019866;28;51199;-85
2021/07/09 01:00:21;;;;;;;;;4.75;4.00;;;;;;;;5021207;28;45567;-84
2021/07/09 01:02:47;;;;;;;;;4.00;4.00;;;;;;;;5013514;28;45682;-85
2021/07/09 01:05:13;;;;;;;;;4.00;4.00;;;;;;;;5026963;28;47086;-84
2021/07/09 01:07:39;;;;;;;;;7.50;6.00;;;;;;;;5031133;28;46198;-84
2021/07/09 01:10:08;;;;;;;;;7.00;6.00;;;;;;;;5041889;28;45690;-84
2021/07/09 01:12:34;;;;;;;;;4.75;4.50;;;;;;;;5026103;28;45520;-85
2021/07/09 01:14:59;;;;;;;;;4.50;4.50;;;;;;;;5039824;28;46325;-85
2021/07/09 01:17:27;;;;;;;;;7.75;5.25;;;;;;;;5040474;28;45484;-85
2021/07/09 01:19:53;;;;;;;;;6.75;6.00;;;;;;;;5033916;28;45575;-85
2021/07/09 01:22:18;;;;;;;;;4.75;4.75;;;;;;;;5031863;28;45326;-84
2021/07/09 01:24:43;;;;;;;;;4.75;4.25;;;;;;;;5023184;28;46975;-85
2021/07/09 01:27:08;;;;;;;;;7.75;5.75;;;;;;;;5016109;28;45537;-85
2021/07/09 01:29:34;;;;;;;;;6.00;4.25;;;;;;;;5031250;28;45819;-85
2021/07/09 01:32:00;;;;;;;;;8.00;5.00;;;;;;;;5019413;28;45502;-84
2021/07/09 01:34:25;;;;;;;;;5.00;4.00;;;;;;;;5028658;28;46731;-85
2021/07/09 01:36:50;;;;;;;;;5.00;5.00;;;;;;;;5031185;28;45447;-85
2021/07/09 01:39:16;;;;;;;;;6.75;5.00;;;;;;;;5014572;28;45684;-85
2021/07/09 01:41:42;;;;;;;;;5.00;4.75;;;;;;;;5033774;28;45574;-85
2021/07/09 01:44:07;;;;;;;;;9.50;6.75;;;;;;;;5035831;28;46928;-85
2021/07/09 01:46:33;;;;;;;;;5.25;5.00;;;;;;;;5040745;28;45616;-85
2021/07/09 01:48:58;;;;;;;;;8.50;7.00;;;;;;;;5017783;28;46005;-85
2021/07/09 01:51:23;;;;;;;;;6.00;4.75;;;;;;;;5022824;28;45553;-85
2021/07/09 01:53:48;;;;;;;;;5.75;5.75;;;;;;;;5015957;28;46985;-85
2021/07/09 01:56:14;;;;;;;;;5.50;5.00;;;;;;;;5034421;28;45570;-85
2021/07/09 01:58:40;;;;;;;;;7.75;5.75;;;;;;;;5032935;28;45423;-84
2021/07/09 02:01:06;;;;;;;;;5.00;5.00;;;;;;;;5017535;28;46029;-85
2021/07/09 02:03:31;;;;;;;;;7.75;6.25;;;;;;;;5040954;28;46056;-84
2021/07/09 02:05:56;;;;;;;;;9.50;5.75;;;;;;;;5020805;28;46054;-85
2021/07/09 02:08:22;;;;;;;;;6.00;6.00;;;;;;;;5032752;28;45483;-84
2021/07/09 02:10:47;;;;;;;;;6.50;6.00;;;;;;;;5033265;28;45418;-84
2021/07/09 02:13:13;;;;;;;;;8.50;6.00;;;;;;;;5013837;28;46509;-84
2021/07/09 02:15:39;;;;;;;;;8.00;7.00;;;;;;;;5033192;28;45299;-84
2021/07/09 02:18:06;;;;;;;;;5.50;5.50;;;;;;;;5035642;28;45720;-85
2021/07/09 02:20:31;;;;;;;;;8.25;6.00;;;;;;;;5034200;28;45560;-84
2021/07/09 02:22:58;;;;;;;;;8.75;5.25;;;;;;;;5031519;28;45743;-85
2021/07/09 02:25:23;;;;;;;;;6.00;6.00;;;;;;;;5032772;28;50496;-85
2021/07/09 02:27:49;;;;;;;;;7.25;6.00;;;;;;;;5038368;28;45378;-85
2021/07/09 02:30:18;;;;;;;;;8.00;6.25;;;;;;;;5022938;28;45530;-85
2021/07/09 02:32:44;;;;;;;;;7.25;7.25;;;;;;;;5019225;28;47256;-85
2021/07/09 02:35:10;;;;;;;;;6.00;6.00;;;;;;;;5032612;28;45502;-84
2021/07/09 02:37:36;;;;;;;;;7.00;6.00;;;;;;;;5019689;28;45529;-83
2021/07/09 02:40:02;;;;;;;;;9.50;6.25;;;;;;;;5017639;28;47620;-83
2021/07/09 02:42:28;;;;;;;;;11.00;8.00;;;;;;;;5038000;28;45650;-83
2021/07/09 02:44:53;;;;;;;;;8.75;6.00;;;;;;;;5020749;28;45790;-83
2021/07/09 02:47:18;;;;;;;;;10.33;7.00;;;;;;;;5042014;28;45454;-83
2021/07/09 02:49:44;;;;;;;;;7.00;5.75;;;;;;;;5029368;28;45655;-83
2021/07/09 02:52:09;;;;;;;;;6.25;5.00;;;;;;;;5028672;28;47078;-84
2021/07/09 02:54:35;;;;;;;;;7.75;6.75;;;;;;;;5041348;28;45552;-83
2021/07/09 02:57:00;;;;;;;;;6.00;6.00;;;;;;;;5032119;28;45412;-83
2021/07/09 02:59:26;;;;;;;;;7.25;6.75;;;;;;;;5042345;28;45515;-84
2021/07/09 03:01:51;;;;;;;;;6.25;5.50;;;;;;;;5025079;28;47343;-84
2021/07/09 03:04:16;;;;;;;;;8.50;7.00;;;;;;;;5024277;28;45585;-83
2021/07/09 03:06:42;;;;;;;;;9.67;6.67;;;;;;;;5027430;28;45718;-84
2021/07/09 03:09:08;;;;;;;;;10.25;7.00;;;;;;;;5042409;28;45485;-84
2021/07/09 03:11:34;;;;;;;;;7.25;6.00;;;;;;;;5041619;28;46393;-83
2021/07/09 03:13:59;;;;;;;;;7.50;6.75;;;;;;;;5047751;28;45292;-84
2021/07/09 03:16:25;;;;;;;;;5.50;5.50;;;;;;;;5024422;28;45641;-83
2021/07/09 03:18:50;;;;;;;;;6.00;5.00;;;;;;;;5023407;28;45550;-84
2021/07/09 03:21:15;;;;;;;;;8.50;6.50;;;;;;;;5036236;28;45562;-84
2021/07/09 03:23:40;;;;;;;;;6.25;6.00;;;;;;;;5029948;28;46005;-83
2021/07/09 03:26:06;;;;;;;;;6.67;5.33;;;;;;;;5039055;28;45637;-83
2021/07/09 03:28:31;;;;;;;;;7.00;6.00;;;;;;;;5038706;28;46777;-83
2021/07/09 03:30:56;;;;;;;;;9.00;7.00;;;;;;;;5025537;28;46387;-84
2021/07/09 03:33:22;;;;;;;;;12.00;7.00;;;;;;;;5024012;28;45561;-84
2021/07/09 03:35:47;;;;;;;;;9.75;7.75;;;;;;;;5042848;28;61453;-84
2021/07/09 03:38:12;;;;;;;;;8.50;6.75;;;;;;;;5039813;28;45835;-83
2021/07/09 03:40:38;;;;;;;;;8.25;7.00;;;;;;;;5029343;28;47747;-84
2021/07/09 03:43:03;;;;;;;;;9.25;8.00;;;;;;;;5027068;28;45645;-83
2021/07/09 03:45:28;;;;;;;;;11.00;9.00;;;;;;;;5038573;28;45504;-84
2021/07/09 03:47:54;;;;;;;;;7.50;7.00;;;;;;;;5023134;28;45607;-84
2021/07/09 03:50:19;;;;;;;;;7.75;7.00;;;;;;;;5028416;28;46346;-83
2021/07/09 03:52:45;;;;;;;;;7.75;7.00;;;;;;;;5033900;28;45532;-84
2021/07/09 03:55:10;;;;;;;;;10.50;7.50;;;;;;;;5025457;28;45757;-84
2021/07/09 03:57:36;;;;;;;;;9.00;7.75;;;;;;;;5027669;28;45601;-83
2021/07/09 04:00:03;;;;;;;;;10.00;6.75;;;;;;;;5036203;28;45474;-84
2021/07/09 04:02:29;;;;;;;;;9.25;9.00;;;;;;;;5035324;28;45810;-84
2021/07/09 04:04:54;;;;;;;;;10.75;8.50;;;;;;;;5043404;28;45537;-84
2021/07/09 04:07:19;;;;;;;;;11.00;8.00;;;;;;;;5035657;28;45519;-84
2021/07/09 04:09:44;;;;;;;;;11.25;10.50;;;;;;;;5039332;28;45514;-84
2021/07/09 04:12:10;;;;;;;;;11.25;8.75;;;;;;;;5029526;28;45592;-83
2021/07/09 04:14:35;;;;;;;;;12.75;8.00;;;;;;;;5037052;28;45490;-84
2021/07/09 04:17:01;;;;;;;;;9.50;8.00;;;;;;;;5018165;28;45485;-84
2021/07/09 04:19:26;;;;;;;;;12.00;7.75;;;;;;;;5018813;28;46960;-83
2021/07/09 04:21:51;;;;;;;;;13.00;9.50;;;;;;;;5012815;28;45913;-83
2021/07/09 04:24:17;;;;;;;;;10.50;9.50;;;;;;;;5034891;28;45875;-83
2021/07/09 04:26:42;;;;;;;;;13.00;11.00;;;;;;;;5015669;28;45622;-83
2021/07/09 04:29:07;;;;;;;;;8.00;7.00;;;;;;;;5026058;28;48103;-83
2021/07/09 04:31:33;;;;;;;;;9.75;8.00;;;;;;;;5040811;28;45486;-84
2021/07/09 04:34:01;;;;;;;;;11.00;9.00;;;;;;;;5034975;28;45454;-84
2021/07/09 04:36:26;;;;;;;;;10.00;9.50;;;;;;;;5017879;28;45612;-83
2021/07/09 04:38:51;;;;;;;;;9.33;9.00;;;;;;;;5031269;28;45455;-84
2021/07/09 04:41:17;;;;;;;;;12.00;8.00;;;;;;;;5026687;28;45534;-84
2021/07/09 04:43:42;;;;;;;;;11.00;10.75;;;;;;;;5034317;28;45478;-84
2021/07/09 04:46:08;;;;;;;;;11.50;10.25;;;;;;;;5032319;28;45464;-84
2021/07/09 04:48:33;;;;;;;;;10.50;7.25;;;;;;;;5025157;28;46936;-83
2021/07/09 04:51:01;;;;;;;;;8.00;7.25;;;;;;;;5031476;28;45481;-84
2021/07/09 04:53:26;;;;;;;;;10.00;8.75;;;;;;;;5032280;28;45623;-84
2021/07/09 04:55:52;;;;;;;;;9.00;8.00;;;;;;;;5024572;28;46377;-84
2021/07/09 04:58:17;;;;;;;;;10.00;8.25;;;;;;;;5023403;28;48417;-84
2021/07/09 05:00:42;;;;;;;;;9.50;9.25;;;;;;;;5041610;28;46096;-84
2021/07/09 05:03:07;;;;;;;;;10.00;9.00;;;;;;;;5029256;28;45636;-83
2021/07/09 05:05:33;;;;;;;;;9.75;8.25;;;;;;;;5028721;28;45809;-84
2021/07/09 05:07:58;;;;;;;;;12.00;9.00;;;;;;;;5040250;28;47395;-84
2021/07/09 05:10:23;;;;;;;;;8.00;8.00;;;;;;;;5036953;28;45407;-84
2021/07/09 05:12:49;;;;;;;;;9.25;7.75;;;;;;;;5024079;28;50197;-83
2021/07/09 05:15:14;;;;;;;;;11.00;10.00;;;;;;;;5018252;28;45740;-83
2021/07/09 05:17:40;;;;;;;;;7.75;7.50;;;;;;;;5032910;28;46883;-83
2021/07/09 05:20:05;;;;;;;;;11.25;9.50;;;;;;;;5022307;28;45340;-84
2021/07/09 05:22:31;;;;;;;;;8.50;8.25;;;;;;;;5033709;28;45510;-83
2021/07/09 05:24:56;;;;;;;;;12.75;11.00;;;;;;;;5021858;28;45688;-83
2021/07/09 05:27:27;;;;;;;;;10.00;9.25;;;;;;;;5016168;28;47064;-83
2021/07/09 05:29:53;;;;;;;;;11.50;9.25;;;;;;;;5017268;28;45644;-83
2021/07/09 05:32:23;;;;;;;;;11.75;10.00;;;;;;;;5039374;28;45918;-84
2021/07/09 05:34:48;;;;;;;;;13.00;9.00;;;;;;;;5012160;28;46526;-84
2021/07/09 05:37:14;;;;;;;;;11.00;9.25;;;;;;;;5029185;28;47746;-84
2021/07/09 05:39:39;;;;;;;;;10.75;9.00;;;;;;;;5040157;28;48848;-83
2021/07/09 05:42:04;;;;;;;;;12.00;9.00;;;;;;;;5032194;28;47766;-83
2021/07/09 05:44:30;;;;;;;;;13.00;11.25;;;;;;;;5038131;28;45956;-84
2021/07/09 05:46:56;;;;;;;;;8.25;7.75;;;;;;;;5017559;28;47103;-84
2021/07/09 05:51:51;;;;;;;;;11.25;10.00;;;;;;;;5085172;22;46079;-82
2021/07/09 05:54:16;;;;;;;;;10.75;9.50;;;;;;;;5021491;28;45697;-83
2021/07/09 05:56:42;;;;;;;;;12.75;9.75;;;;;;;;5022461;28;47485;-83
2021/07/09 05:59:07;;;;;;;;;13.50;9.50;;;;;;;;5037199;28;45548;-83
2021/07/09 06:01:32;;;;;;;;;9.75;9.75;;;;;;;;5043783;28;48991;-82
2021/07/09 06:03:58;;;;;;;;;11.75;10.50;;;;;;;;5031490;28;45446;-83
2021/07/09 06:06:23;;;;;;;;;9.25;8.25;;;;;;;;5039618;28;46187;-83
2021/07/09 06:08:49;;;;;;;;;10.25;9.25;;;;;;;;5030338;28;45511;-83
2021/07/09 06:11:15;;;;;;;;;8.33;7.67;;;;;;;;5041298;28;45435;-83
2021/07/09 06:13:40;;;;;;;;;9.25;8.50;;;;;;;;5012421;28;50496;-83
2021/07/09 06:16:05;;;;;;;;;10.50;10.00;;;;;;;;5036423;28;45340;-82
2021/07/09 06:18:31;;;;;;;;;11.67;8.00;;;;;;;;5040910;28;45249;-83
2021/07/09 06:20:56;;;;;;;;;11.75;9.25;;;;;;;;5025130;28;46089;-82
2021/07/09 06:23:21;;;;;;;;;9.25;8.00;;;;;;;;5031209;28;50084;-82
2021/07/09 06:25:46;;;;;;;;;12.25;9.50;;;;;;;;5013933;28;49078;-83
2021/07/09 06:28:11;;;;;;;;;12.25;11.00;;;;;;;;5043753;28;45621;-82
2021/07/09 06:30:37;;;;;;;;;11.00;9.25;;;;;;;;5043602;28;45640;-82
2021/07/09 06:33:03;;;;;;;;;10.75;9.50;;;;;;;;5034635;28;47441;-83
2021/07/09 06:35:29;;;;;;;;;13.00;10.75;;;;;;;;5042493;28;46566;-83
2021/07/09 06:37:55;;;;;;;;;11.00;9.25;;;;;;;;5019583;28;45530;-83
2021/07/09 06:40:20;;;;;;;;;12.00;10.25;;;;;;;;5032940;28;45553;-83
2021/07/09 06:42:45;;;;;;;;;9.00;8.25;;;;;;;;5044491;28;51097;-83
2021/07/09 06:45:11;;;;;;;;;11.50;9.75;;;;;;;;5029539;28;45851;-83
2021/07/09 06:47:37;;;;;;;;;10.00;9.25;;;;;;;;5031724;28;45570;-82
2021/07/09 06:50:02;;;;;;;;;11.50;10.50;;;;;;;;5020127;28;45411;-82
2021/07/09 06:52:27;;;;;;;;;11.50;9.50;;;;;;;;5030132;28;45448;-82
2021/07/09 06:54:52;;;;;;;;;11.50;11.25;;;;;;;;5022401;28;47452;-83
2021/07/09 06:57:18;;;;;;;;;11.67;9.00;;;;;;;;5027723;28;45556;-83
2021/07/09 06:59:44;;;;;;;;;10.50;9.25;;;;;;;;5030446;28;45740;-82
2021/07/09 07:02:11;;;;;;;;;12.25;12.00;;;;;;;;5029550;28;45445;-81
2021/07/09 07:04:36;;;;;;;;;13.25;11.00;;;;;;;;5024746;28;45762;-83
2021/07/09 07:07:02;;;;;;;;;8.67;8.33;;;;;;;;5024755;28;45607;-81
2021/07/09 07:09:27;;;;;;;;;10.25;8.75;;;;;;;;5033075;28;45802;-80
2021/07/09 07:11:52;;;;;;;;;12.00;11.00;;;;;;;;5022000;28;51814;-82
2021/07/09 07:14:18;;;;;;;;;15.00;11.75;;;;;;;;5021895;28;47217;-81
2021/07/09 07:16:43;;;;;;;;;10.50;9.00;;;;;;;;5033239;28;45346;-81
2021/07/09 07:19:08;;;;;;;;;12.25;10.00;;;;;;;;5042171;28;45438;-81
2021/07/09 07:21:33;;;;;;;;;12.25;11.00;;;;;;;;5024849;28;45646;-80
2021/07/09 07:23:59;;;;;;;;;14.50;11.00;;;;;;;;5024370;28;47321;-81
2021/07/09 07:26:24;;;;;;;;;12.33;10.00;;;;;;;;5030469;28;45820;-81
2021/07/09 07:28:49;;;;;;;;;13.75;9.75;;;;;;;;5015277;28;45752;-82
2021/07/09 07:31:14;;;;;;;;;11.75;11.00;;;;;;;;5021480;28;45570;-82
2021/07/09 07:33:40;;;;;;;;;14.75;12.50;;;;;;;;5031410;28;45707;-81
2021/07/09 07:36:06;;;;;;;;;14.75;11.25;;;;;;;;5019721;28;45696;-82
2021/07/09 07:38:31;;;;;;;;;10.75;10.00;;;;;;;;5035329;28;48151;-81
2021/07/09 07:40:56;;;;;;;;;15.00;12.25;;;;;;;;5022705;28;45526;-82
2021/07/09 07:43:22;;;;;;;;;12.00;10.50;;;;;;;;5038242;28;45674;-81
2021/07/09 07:45:47;;;;;;;;;14.00;12.75;;;;;;;;5030771;28;45497;-81
2021/07/09 07:48:12;;;;;;;;;14.25;10.00;;;;;;;;5028638;28;46374;-81
2021/07/09 07:50:38;;;;;;;;;12.25;10.75;;;;;;;;5033554;28;46389;-81
2021/07/09 07:53:03;;;;;;;;;14.50;11.25;;;;;;;;5028106;28;46915;-82
2021/07/09 07:55:28;;;;;;;;;12.50;11.25;;;;;;;;5029224;28;45497;-81
2021/07/09 07:57:55;;;;;;;;;17.67;14.67;;;;;;;;5033842;28;45474;-80
2021/07/09 08:00:21;;;;;;;;;13.25;12.25;;;;;;;;5031646;28;45632;-81
2021/07/09 08:02:46;;;;;;;;;11.00;9.75;;;;;;;;5025669;28;47424;-81
2021/07/09 08:05:11;;;;;;;;;11.75;9.75;;;;;;;;5017358;28;45470;-81
2021/07/09 08:07:37;;;;;;;;;11.75;10.75;;;;;;;;5028848;28;45394;-81
2021/07/09 08:10:03;;;;;;;;;13.25;11.25;;;;;;;;5021072;28;47278;-81
2021/07/09 08:12:28;;;;;;;;;16.50;12.50;;;;;;;;5031622;28;45737;-81
2021/07/09 08:14:54;;;;;;;;;14.25;11.50;;;;;;;;5022291;28;46137;-80
2021/07/09 08:17:19;;;;;;;;;15.50;12.25;;;;;;;;5032882;28;45438;-80
2021/07/09 08:19:44;;;;;;;;;10.25;10.25;;;;;;;;5034457;28;46272;-80
2021/07/09 08:22:10;;;;;;;;;9.33;9.00;;;;;;;;5038877;28;46710;-81
2021/07/09 08:24:35;;;;;;;;;10.25;9.25;;;;;;;;5030338;28;45426;-81
2021/07/09 08:27:00;;;;;;;;;10.00;10.00;;;;;;;;5033590;28;45490;-81
2021/07/09 08:29:26;;;;;;;;;9.50;9.25;;;;;;;;5041097;28;45904;-83
2021/07/09 08:31:52;;;;;;;;;13.50;8.75;;;;;;;;5011612;28;48065;-84
2021/07/09 08:34:17;;;;;;;;;14.50;10.75;;;;;;;;5014550;28;47494;-82
2021/07/09 08:36:42;;;;;;;;;13.50;11.00;;;;;;;;5026215;28;46436;-82
2021/07/09 08:39:08;;;;;;;;;11.25;11.00;;;;;;;;5018485;28;46610;-82
2021/07/09 08:41:33;;;;;;;;;10.75;9.50;;;;;;;;5028664;28;49746;-82
2021/07/09 08:43:58;;;;;;;;;14.00;10.00;;;;;;;;5009465;28;47892;-82
2021/07/09 08:46:26;;;;;;;;;14.75;9.25;;;;;;;;5032782;28;46369;-82
2021/07/09 08:48:51;;;;;;;;;10.00;9.50;;;;;;;;5036603;28;45767;-82
2021/07/09 08:51:17;;;;;;;;;8.50;7.75;;;;;;;;5043886;28;46137;-82
2021/07/09 08:53:42;;;;;;;;;8.00;6.75;;;;;;;;5032005;28;45454;-82
2021/07/09 08:56:07;;;;;;;;;10.00;8.33;;;;;;;;5029042;28;45881;-82
2021/07/09 08:58:32;;;;;;;;;9.75;9.25;;;;;;;;5037714;28;45505;-82
2021/07/09 09:00:58;;;;;;;;;12.50;10.00;;;;;;;;5011104;28;45585;-82
2021/07/09 09:03:24;;;;;;;;;8.25;8.00;;;;;;;;5026867;28;45849;-82
2021/07/09 09:05:50;;;;;;;;;11.00;8.75;;;;;;;;5039720;28;45526;-82
2021/07/09 09:08:16;;;;;;;;;8.00;7.25;;;;;;;;5030188;28;45696;-82
2021/07/09 09:10:43;;;;;;;;;11.00;8.25;;;;;;;;5030108;28;45562;-82
2021/07/09 09:13:13;;;;;;;;;5.75;5.75;;;;;;;;5037724;28;45657;-82
2021/07/09 09:15:39;;;;;;;;;9.00;7.00;;;;;;;;5036812;28;47041;-82
2021/07/09 09:18:29;;;;;;;;;10.25;9.25;;;;;;;;5020230;28;46077;-82
2021/07/09 09:21:02;;;;;;;;;9.50;7.75;;;;;;;;5030689;28;47457;-82
2021/07/09 09:23:28;;;;;;;;;7.00;6.50;;;;;;;;5018649;28;45635;-81
2021/07/09 09:25:54;;;;;;;;;6.00;6.00;;;;;;;;5026987;28;45557;-82
2021/07/09 09:28:20;;;;;;;;;9.00;8.00;;;;;;;;5022318;28;50452;-82
2021/07/09 09:30:48;;;;;;;;;8.00;7.00;;;;;;;;5034772;28;46122;-82
2021/07/09 09:33:13;;;;;;;;;5.00;5.00;;;;;;;;5033299;28;45577;-82
2021/07/09 09:35:42;;;;;;;;;6.00;6.00;;;;;;;;5046203;28;49923;-82
2021/07/09 09:38:08;;;;;;;;;7.00;5.75;;;;;;;;5041306;28;45738;-82
2021/07/09 09:40:35;;;;;;;;;8.25;6.00;;;;;;;;5040799;28;45774;-83
2021/07/09 09:43:07;;;;;;;;;7.25;5.75;;;;;;;;5027713;28;45603;-82
2021/07/09 09:45:34;;;;;;;;;8.75;6.00;;;;;;;;5018122;28;45530;-82
2021/07/09 09:48:06;;;;;;;;;10.00;6.50;;;;;;;;5021930;28;45501;-83
2021/07/09 09:50:39;;;;;;;;;7.25;6.50;;;;;;;;5010724;28;47885;-80
2021/07/09 09:53:04;;;;;;;;;8.25;6.75;;;;;;;;5029090;28;45965;-82
2021/07/09 09:55:30;;;;;;;;;8.33;7.00;;;;;;;;5021889;28;45758;-81
2021/07/09 09:58:09;;;;;;;;;7.25;7.25;;;;;;;;5010417;28;45663;-82
2021/07/09 10:00:35;;;;;;;;;7.00;7.00;;;;;;;;5029423;28;46233;-82
2021/07/09 10:03:04;;;;;;;;;4.50;4.50;;;;;;;;5032137;28;46061;-82
2021/07/09 10:05:31;;;;;;;;;4.25;4.00;;;;;;;;5021864;28;46492;-82
2021/07/09 10:07:56;;;;;;;;;5.50;4.75;;;;;;;;5041513;28;45675;-82
2021/07/09 10:10:22;;;;;;;;;6.75;6.75;;;;;;;;5025875;28;47039;-82
2021/07/09 10:12:49;;;;;;;;;6.25;6.25;;;;;;;;5034381;28;45935;-82
2021/07/09 10:15:14;;;;;;;;;8.00;6.00;;;;;;;;5011133;28;45732;-82
2021/07/09 10:17:40;;;;;;;;;5.50;5.00;;;;;;;;5033437;28;45666;-82
2021/07/09 10:20:06;;;;;;;;;5.75;5.75;;;;;;;;5039604;28;47327;-82
2021/07/09 10:22:31;;;;;;;;;8.00;6.25;;;;;;;;5045556;28;45635;-83
2021/07/09 10:24:58;;;;;;;;;6.00;4.00;;;;;;;;5040136;28;45449;-83
2021/07/09 10:27:24;;;;;;;;;6.75;5.75;;;;;;;;5039980;28;45616;-82
2021/07/09 10:29:50;;;;;;;;;7.25;6.25;;;;;;;;5039421;28;46312;-83
2021/07/09 10:32:31;;;;;;;;;6.50;6.00;;;;;;;;5024485;28;45739;-81
2021/07/09 10:34:56;;;;;;;;;9.25;6.75;;;;;;;;5029982;28;45733;-82
2021/07/09 10:37:29;;;;;;;;;8.00;6.50;;;;;;;;5031823;28;45651;-82
2021/07/09 10:40:05;;;;;;;;;6.00;6.00;;;;;;;;5019358;28;45824;-82
2021/07/09 10:42:38;;;;;;;;;9.00;5.75;;;;;;;;5024685;28;45489;-82
2021/07/09 10:45:19;;;;;;;;;8.00;5.25;;;;;;;;5033291;28;49880;-81
2021/07/09 10:47:47;;;;;;;;;6.75;6.50;;;;;;;;5040769;28;45433;-82
2021/07/09 10:50:33;;;;;;;;;9.50;6.75;;;;;;;;5035167;28;45572;-82
2021/07/09 10:52:59;;;;;;;;;7.50;7.50;;;;;;;;5025620;28;45654;-81
2021/07/09 10:55:24;;;;;;;;;8.50;7.00;;;;;;;;5020789;28;46071;-81
2021/07/09 10:58:10;;;;;;;;;8.00;6.00;;;;;;;;5030787;28;49574;-82
2021/07/09 11:00:46;;;;;;;;;6.75;5.75;;;;;;;;5017251;28;46671;-82
2021/07/09 11:03:12;;;;;;;;;8.50;4.25;;;;;;;;5030714;28;46345;-81
2021/07/09 11:05:38;;;;;;;;;6.25;5.75;;;;;;;;5009949;28;50036;-82
2021/07/09 11:08:22;;;;;;;;;4.00;4.00;;;;;;;;5027368;28;45584;-81
2021/07/09 11:10:56;;;;;;;;;6.75;5.00;;;;;;;;5028538;28;48352;-82
2021/07/09 11:13:40;;;;;;;;;5.00;3.75;;;;;;;;5023128;28;45584;-83
2021/07/09 11:16:20;;;;;;;;;5.25;4.75;;;;;;;;5031058;28;45865;-87
2021/07/09 11:18:46;;;;;;;;;6.50;5.50;;;;;;;;5023349;28;45670;-87
2021/07/09 11:21:14;;;;;;;;;5.00;4.00;;;;;;;;5025745;28;47190;-86
2021/07/09 11:23:49;;;;;;;;;6.25;4.00;;;;;;;;5027299;28;45974;-85
2021/07/09 11:26:14;;;;;;;;;8.00;6.00;;;;;;;;5024967;28;45808;-83
2021/07/09 11:28:39;;;;;;;;;5.67;4.33;;;;;;;;5031906;28;47541;-83
2021/07/09 11:31:05;;;;;;;;;5.67;4.00;;;;;;;;5027126;28;47281;-86
2021/07/09 11:33:30;;;;;;;;;4.67;4.00;;;;;;;;5025410;28;45384;-83
2021/07/09 11:35:55;;;;;;;;;5.00;5.00;;;;;;;;5039966;28;45655;-85
2021/07/09 11:38:20;;;;;;;;;5.00;4.25;;;;;;;;5017515;28;48122;-85
2021/07/09 11:40:46;;;;;;;;;4.00;4.00;;;;;;;;5018929;28;47003;-84
2021/07/09 11:43:12;;;;;;;;;5.75;4.50;;;;;;;;5034110;28;45765;-84
2021/07/09 11:45:37;;;;;;;;;6.00;6.00;;;;;;;;5036947;28;46353;-81
2021/07/09 11:48:02;;;;;;;;;4.00;4.00;;;;;;;;5031900;28;45585;-82
2021/07/09 11:50:27;;;;;;;;;5.00;3.75;;;;;;;;5028752;28;46775;-83
2021/07/09 11:52:54;;;;;;;;;4.25;4.00;;;;;;;;5035180;28;45462;-82
2021/07/09 11:55:28;;;;;;;;;4.50;4.25;;;;;;;;5027204;28;45609;-81
2021/07/09 11:57:53;;;;;;;;;7.25;5.00;;;;;;;;5031405;28;47537;-82
2021/07/09 12:00:20;;;;;;;;;6.50;5.50;;;;;;;;5035088;28;46669;-82
2021/07/09 12:02:47;;;;;;;;;6.50;6.25;;;;;;;;5040192;28;45703;-82
2021/07/09 12:05:13;;;;;;;;;4.25;4.25;;;;;;;;5035688;28;45442;-83
2021/07/09 12:07:49;;;;;;;;;4.00;3.75;;;;;;;;5020767;28;45658;-84
2021/07/09 12:10:27;;;;;;;;;6.00;5.50;;;;;;;;5038064;28;46548;-84
2021/07/09 12:12:54;;;;;;;;;4.00;3.75;;;;;;;;5035693;28;45513;-81
2021/07/09 12:15:26;;;;;;;;;6.00;5.00;;;;;;;;5032846;28;46624;-83
2021/07/09 12:17:53;;;;;;;;;5.25;5.25;;;;;;;;5033257;28;50020;-82
2021/07/09 12:20:19;;;;;;;;;6.00;5.50;;;;;;;;5029875;28;45532;-82
2021/07/09 12:22:53;;;;;;;;;4.00;4.00;;;;;;;;5040773;28;46443;-81
2021/07/09 12:27:55;;;;;;;;;4.00;4.00;;;;;;;;5489356;22;46016;-82
2021/07/09 12:30:21;;;;;;;;;8.75;7.00;;;;;;;;4954536;28;48283;-82
2021/07/09 12:32:48;;;;;;;;;6.50;6.00;;;;;;;;4956680;28;46281;-82
2021/07/09 12:35:14;;;;;;;;;5.50;4.75;;;;;;;;4963124;28;52968;-82
2021/07/09 12:37:40;;;;;;;;;7.00;7.00;;;;;;;;4961411;28;50632;-82
2021/07/09 12:40:13;;;;;;;;;8.00;6.00;;;;;;;;4955574;28;48237;-82
2021/07/09 12:42:38;;;;;;;;;7.00;5.25;;;;;;;;4962347;28;45475;-83
2021/07/09 12:45:04;;;;;;;;;8.50;6.00;;;;;;;;4955504;28;46307;-82
2021/07/09 12:47:31;;;;;;;;;4.25;4.25;;;;;;;;4953214;28;45539;-82
2021/07/09 12:50:12;;;;;;;;;7.00;5.00;;;;;;;;4967667;28;46420;-82
2021/07/09 12:52:38;;;;;;;;;5.00;5.00;;;;;;;;4962900;28;45731;-82
2021/07/09 12:55:03;;;;;;;;;5.75;3.75;;;;;;;;4952657;28;46256;-82
2021/07/09 12:57:29;;;;;;;;;4.00;4.00;;;;;;;;4962064;28;45535;-82
2021/07/09 12:59:57;;;;;;;;;6.00;4.75;;;;;;;;4959422;28;45361;-82
2021/07/09 13:02:24;;;;;;;;;6.00;4.25;;;;;;;;4954974;28;46157;-82
2021/07/09 13:04:49;;;;;;;;;5.75;5.75;;;;;;;;4965923;28;45519;-82
2021/07/09 13:07:18;;;;;;;;;4.50;4.50;;;;;;;;4959404;28;46073;-82
2021/07/09 13:09:44;;;;;;;;;7.25;5.00;;;;;;;;4960410;28;45551;-83
2021/07/09 13:12:16;;;;;;;;;4.00;4.00;;;;;;;;4963691;28;46199;-82
2021/07/09 13:15:00;;;;;;;;;5.00;3.75;;;;;;;;4958560;28;45600;-82
2021/07/09 13:17:27;;;;;;;;;3.75;3.75;;;;;;;;4957675;28;49191;-82
2021/07/09 13:19:59;;;;;;;;;4.50;4.25;;;;;;;;4967445;28;46837;-82
2021/07/09 13:22:32;;;;;;;;;5.75;5.00;;;;;;;;4950637;28;49403;-82
2021/07/09 13:25:18;;;;;;;;;4.00;4.00;;;;;;;;4956791;28;45526;-82
2021/07/09 13:27:54;;;;;;;;;7.50;4.75;;;;;;;;4963187;28;45710;-82
2021/07/09 13:30:19;;;;;;;;;4.00;4.00;;;;;;;;4952065;28;46354;-86
2021/07/09 13:32:45;;;;;;;;;5.75;5.50;;;;;;;;4973045;28;46555;-82
2021/07/09 13:35:12;;;;;;;;;5.50;5.50;;;;;;;;4976080;28;45594;-80
2021/07/09 13:37:38;;;;;;;;;4.00;4.00;;;;;;;;4957366;28;45602;-82
2021/07/09 13:40:04;;;;;;;;;7.00;4.00;;;;;;;;4954564;28;54501;-81
2021/07/09 13:42:31;;;;;;;;;4.50;4.00;;;;;;;;4963909;28;47153;-81
2021/07/09 13:44:57;;;;;;;;;3.25;3.25;;;;;;;;4959477;28;45282;-81
2021/07/09 13:47:22;;;;;;;;;4.50;4.50;;;;;;;;4959523;28;45980;-81
2021/07/09 13:49:48;;;;;;;;;4.50;4.25;;;;;;;;4976815;28;47204;-81
2021/07/09 13:52:13;;;;;;;;;4.00;4.00;;;;;;;;4960801;28;45647;-81
2021/07/09 13:54:38;;;;;;;;;4.00;4.00;;;;;;;;4954613;28;45425;-81
2021/07/09 13:57:03;;;;;;;;;6.00;5.00;;;;;;;;4959547;28;46427;-81
2021/07/09 13:59:29;;;;;;;;;6.25;5.00;;;;;;;;4949051;28;47860;-81
2021/07/09 14:01:54;;;;;;;;;5.00;4.50;;;;;;;;4961368;28;45829;-81
2021/07/09 14:04:19;;;;;;;;;4.00;4.00;;;;;;;;4957531;28;45877;-81
2021/07/09 14:06:44;;;;;;;;;5.67;5.00;;;;;;;;4962917;28;47285;-82
2021/07/09 14:09:10;;;;;;;;;3.50;3.50;;;;;;;;4974733;28;46843;-81
2021/07/09 14:11:35;;;;;;;;;6.25;4.00;;;;;;;;4953945;28;45779;-81
2021/07/09 14:14:00;;;;;;;;;5.00;3.00;;;;;;;;4956050;28;46207;-81
2021/07/09 14:16:25;;;;;;;;;4.50;3.75;;;;;;;;4968933;28;46912;-81
2021/07/09 14:18:51;;;;;;;;;4.50;4.50;;;;;;;;4958970;28;45608;-82
2021/07/09 14:21:16;;;;;;;;;3.00;3.00;;;;;;;;4949345;28;45709;-81
2021/07/09 14:23:41;;;;;;;;;6.00;4.75;;;;;;;;4956303;28;45503;-81
2021/07/09 14:26:07;;;;;;;;;3.75;3.75;;;;;;;;4963405;28;45633;-81
2021/07/09 14:28:32;;;;;;;;;4.50;4.00;;;;;;;;4952892;28;47129;-81
2021/07/09 14:30:57;;;;;;;;;5.00;4.00;;;;;;;;4958994;28;47485;-81
2021/07/09 14:33:22;;;;;;;;;6.75;4.75;;;;;;;;4958334;28;53819;-81
2021/07/09 14:35:48;;;;;;;;;6.50;5.00;;;;;;;;4976135;28;45619;-81
2021/07/09 14:38:13;;;;;;;;;3.50;3.50;;;;;;;;4965106;28;46252;-82
2021/07/09 14:40:38;;;;;;;;;4.00;4.00;;;;;;;;4978554;28;45463;-82